createdAt,value
2018-12-24T00:04:24.275Z,100484.64
2018-12-24T00:09:20.295Z,100488.55
2018-12-24T00:14:16.316Z,100507.80
2018-12-24T00:19:12.331Z,100517.60
2018-12-24T00:24:08.346Z,100519.54
2018-12-24T00:29:04.363Z,100519.23
2018-12-24T00:34:00.384Z,100520.84
2018-12-24T00:38:56.395Z,100527.36
2018-12-24T00:43:52.421Z,100550.21
2018-12-24T00:48:48.440Z,100574.66
2018-12-24T00:53:44.463Z,100582.83
2018-12-24T00:58:41.495Z,100595.70
2018-12-24T01:03:37.509Z,100609.38
2018-12-24T01:08:33.531Z,100624.41
2018-12-24T01:13:29.545Z,100631.42
2018-12-24T01:18:25.565Z,100638.75
2018-12-24T01:23:21.586Z,100645.78
2018-12-24T01:28:18.364Z,100661.73
2018-12-24T01:33:14.438Z,100667.79
2018-12-24T01:38:10.463Z,100669.56
2018-12-24T01:43:06.476Z,100683.11
2018-12-24T01:48:02.497Z,100682.78
2018-12-24T01:52:58.518Z,100695.03
2018-12-24T01:57:55.477Z,100703.34
2018-12-24T02:02:51.493Z,100720.14
2018-12-24T02:07:47.509Z,100721.18
2018-12-24T02:12:43.496Z,100723.80
2018-12-24T02:17:39.520Z,100733.58
2018-12-24T02:22:35.533Z,100741.75
2018-12-24T02:27:31.550Z,100752.70
2018-12-24T02:32:27.571Z,100756.63
2018-12-24T02:37:23.590Z,100769.01
2018-12-24T02:42:20.055Z,100776.04
2018-12-24T02:47:16.080Z,100785.98
2018-12-24T02:52:12.094Z,100800.19
2018-12-24T02:57:08.098Z,100801.17
2018-12-24T03:02:04.224Z,100815.88
2018-12-24T03:07:00.238Z,100833.52
2018-12-24T03:11:56.265Z,100838.06
2018-12-24T03:16:52.383Z,100854.72
2018-12-24T03:21:48.403Z,100867.31
2018-12-24T03:26:44.421Z,100881.19
2018-12-24T03:31:40.446Z,100886.58
2018-12-24T03:36:36.458Z,100885.78
2018-12-24T03:41:32.470Z,100891.30
2018-12-24T03:46:28.490Z,100908.27
2018-12-24T03:51:24.518Z,100910.24
2018-12-24T03:56:20.544Z,100910.42
2018-12-24T04:01:16.554Z,100915.14
2018-12-24T04:06:12.562Z,100922.01
2018-12-24T04:11:08.596Z,100927.86
2018-12-24T04:16:04.595Z,100942.23
2018-12-24T04:21:00.619Z,100949.42
2018-12-24T04:25:56.637Z,100964.12
2018-12-24T04:30:52.641Z,100973.90
2018-12-24T04:35:48.681Z,100995.63
2018-12-24T04:40:44.683Z,101004.09
2018-12-24T04:45:40.701Z,101019.77
2018-12-24T04:50:36.717Z,101039.84
2018-12-24T04:55:32.731Z,101045.10
2018-12-24T05:00:28.751Z,101057.82
2018-12-24T05:05:24.763Z,101079.98
2018-12-24T05:10:20.779Z,101085.83
2018-12-24T05:15:16.794Z,101097.41
2018-12-24T05:20:12.820Z,101110.25
2018-12-24T05:25:08.840Z,101127.88
2018-12-24T05:30:04.957Z,101138.47
2018-12-24T05:35:00.971Z,101161.44
2018-12-24T05:39:56.990Z,101180.91
2018-12-24T05:44:53.019Z,101194.73
2018-12-24T05:49:49.038Z,101199.95
2018-12-24T05:54:45.054Z,101214.31
2018-12-24T05:59:41.078Z,101227.87
2018-12-24T06:04:37.092Z,101240.73
2018-12-24T06:09:33.113Z,101273.64
2018-12-24T06:14:29.155Z,101280.00
2018-12-24T06:19:25.142Z,101297.59
2018-12-24T06:24:21.165Z,101306.42
2018-12-24T06:29:17.238Z,101307.58
2018-12-24T06:34:13.258Z,101312.02
2018-12-24T06:39:09.273Z,101319.77
2018-12-24T06:44:06.801Z,101336.28
2018-12-24T06:49:03.214Z,101336.48
2018-12-24T06:53:59.228Z,101346.05
2018-12-24T06:58:55.243Z,101370.69
2018-12-24T07:03:51.262Z,101388.00
2018-12-24T07:08:47.278Z,101406.64
2018-12-24T07:13:43.300Z,101434.86
2018-12-24T07:18:39.338Z,101446.63
2018-12-24T07:23:35.363Z,101460.48
2018-12-24T07:28:32.083Z,101474.61
2018-12-24T07:33:28.066Z,101495.80
2018-12-24T07:43:31.963Z,101521.03
2018-12-24T07:48:27.965Z,101517.04
2018-12-24T07:53:24.000Z,101516.28
2018-12-24T07:58:20.748Z,101522.55
2018-12-24T08:03:16.775Z,101525.37
2018-12-24T08:08:12.809Z,101537.91
2018-12-24T08:13:08.837Z,101539.47
2018-12-24T08:18:12.686Z,101535.13
2018-12-24T08:23:08.724Z,101544.69
2018-12-24T08:28:25.187Z,101581.03
2018-12-24T08:33:21.403Z,101594.33
2018-12-24T08:38:17.436Z,101611.33
2018-12-24T08:43:13.498Z,101630.79
2018-12-24T08:48:09.526Z,101629.69
2018-12-24T08:53:05.550Z,101643.20
2018-12-24T08:58:22.213Z,101661.88
2018-12-24T09:03:18.407Z,101668.94
2018-12-24T09:08:14.522Z,101674.06
2018-12-24T09:13:10.556Z,101695.16
2018-12-24T09:18:06.590Z,101724.62
2018-12-24T09:23:02.625Z,101751.92
2018-12-24T09:27:59.321Z,101774.27
2018-12-24T09:32:55.460Z,101805.69
2018-12-24T09:37:51.493Z,101825.31
2018-12-24T09:42:47.527Z,101832.64
2018-12-24T09:47:43.553Z,101853.45
2018-12-24T09:52:39.690Z,101851.91
2018-12-24T09:58:17.751Z,101855.69
2018-12-24T10:03:14.829Z,101855.23
2018-12-24T10:08:53.032Z,101867.51
2018-12-24T10:13:49.283Z,101865.22
2018-12-24T10:18:45.890Z,101858.89
2018-12-24T10:24:23.817Z,101865.02
2018-12-24T10:29:20.440Z,101871.31
2018-12-24T10:34:17.089Z,101868.31
2018-12-24T10:39:33.523Z,101881.95
2018-12-24T10:44:52.056Z,101879.82
2018-12-24T10:49:48.925Z,101883.94
2018-12-24T10:54:45.966Z,101879.47
2018-12-24T11:00:24.110Z,101897.55
2018-12-24T11:05:20.294Z,101892.59
2018-12-24T11:10:16.329Z,101895.80
2018-12-24T11:26:13.397Z,101882.87
2018-12-24T11:36:34.842Z,101897.64
2018-12-24T11:41:31.610Z,101907.88
2018-12-24T11:46:30.582Z,101924.38
2018-12-24T11:51:27.772Z,101918.45
2018-12-24T11:56:24.684Z,101934.70
2018-12-24T12:01:21.766Z,101934.66
2018-12-24T12:06:38.551Z,101929.45
2018-12-24T12:11:35.199Z,101939.22
2018-12-24T12:16:51.377Z,101931.44
2018-12-24T12:21:48.265Z,101934.39
2018-12-24T12:26:46.448Z,101955.58
2018-12-24T12:31:43.310Z,101959.76
2018-12-24T12:36:40.274Z,101970.26
2018-12-24T12:41:37.142Z,101979.44
2018-12-24T12:46:34.037Z,101968.06
2018-12-24T12:52:12.103Z,101979.56
2018-12-24T12:57:28.788Z,101986.82
2018-12-24T13:02:25.673Z,101993.33
2018-12-24T13:07:24.061Z,101999.13
2018-12-24T13:12:22.323Z,102007.89
2018-12-24T13:23:03.251Z,102022.55
2018-12-24T13:28:20.007Z,102030.95
2018-12-24T13:33:36.734Z,102047.28
2018-12-24T13:38:34.470Z,102042.72
2018-12-24T13:43:31.382Z,102045.00
2018-12-24T13:49:09.584Z,102052.03
2018-12-24T13:54:06.835Z,102068.73
2018-12-24T14:04:51.559Z,102086.51
2018-12-24T14:15:34.955Z,102092.20
2018-12-24T14:20:31.459Z,102105.78
2018-12-24T14:26:09.383Z,102105.70
2018-12-24T14:31:06.987Z,102103.80
2018-12-24T14:36:03.844Z,102103.80
2018-12-24T14:41:00.629Z,102104.61
2018-12-24T14:46:25.398Z,102099.77
2018-12-24T14:51:17.022Z,102098.82
2018-12-24T14:56:13.767Z,102090.28
2018-12-24T15:01:10.594Z,102108.88
2018-12-24T15:06:10.107Z,102118.36
2018-12-24T15:11:27.180Z,102120.02
2018-12-24T15:16:43.873Z,102127.83
2018-12-24T15:27:42.287Z,102153.16
2018-12-24T15:38:25.545Z,102138.35
2018-12-24T15:44:02.988Z,102139.41
2018-12-24T15:48:59.579Z,102142.63
2018-12-24T15:54:37.961Z,102145.34
2018-12-24T15:59:54.642Z,102131.84
2018-12-24T16:04:55.862Z,102138.47
2018-12-24T16:09:58.250Z,102135.17
2018-12-24T16:14:55.048Z,102152.34
2018-12-24T16:20:31.757Z,102176.50
2018-12-24T16:25:28.973Z,102186.67
2018-12-24T16:30:25.640Z,102181.45
2018-12-24T16:35:22.458Z,102178.86
2018-12-24T16:46:38.087Z,102184.55
2018-12-24T16:51:56.612Z,102186.05
2018-12-24T16:57:34.760Z,102200.63
2018-12-24T17:03:12.891Z,102213.19
2018-12-24T17:13:15.959Z,102212.30
2018-12-24T17:24:01.923Z,102219.28
2018-12-24T17:29:45.035Z,102223.25
2018-12-24T17:40:39.625Z,102268.83
2018-12-24T17:45:36.299Z,102274.13
2018-12-24T17:50:52.944Z,102270.80
2018-12-24T17:55:49.848Z,102246.03
2018-12-24T18:00:49.005Z,102259.17
2018-12-24T18:11:10.110Z,102272.91
2018-12-24T18:16:06.930Z,102287.57
2018-12-24T18:26:06.521Z,102305.55
2018-12-24T18:31:03.462Z,102298.79
2018-12-24T18:36:41.983Z,102293.03
2018-12-24T18:41:38.679Z,102281.14
2018-12-24T18:46:35.393Z,102285.35
2018-12-24T18:51:32.171Z,102288.28
2018-12-24T19:01:40.002Z,102267.77
2018-12-24T19:11:45.065Z,102255.92
2018-12-24T19:16:42.077Z,102260.20
2018-12-24T19:27:02.656Z,102272.73
2018-12-24T19:32:00.236Z,102271.98
2018-12-24T19:37:17.564Z,102293.67
2018-12-24T19:42:15.038Z,102305.17
2018-12-24T19:52:57.715Z,102319.00
2018-12-24T19:57:54.610Z,102327.44
2018-12-24T20:03:36.148Z,102331.64
2018-12-24T20:08:34.338Z,102344.91
2018-12-24T20:13:31.113Z,102341.73
2018-12-24T20:18:28.027Z,102332.67
2018-12-24T20:23:25.227Z,102328.91
2018-12-24T20:38:37.165Z,102345.16
2018-12-24T20:43:33.284Z,102348.20
2018-12-24T20:48:29.414Z,102355.19
2018-12-24T20:58:50.112Z,102354.67
2018-12-24T21:14:35.573Z,102363.69
2018-12-24T21:20:13.578Z,102362.77
2018-12-24T21:25:10.762Z,102375.94
2018-12-24T21:30:06.883Z,102378.91
2018-12-24T21:35:44.821Z,102382.66
2018-12-24T21:40:41.767Z,102384.25
2018-12-24T21:45:38.963Z,102376.98
2018-12-24T21:51:17.343Z,102370.28
2018-12-24T21:56:33.804Z,102371.03
2018-12-24T22:01:30.209Z,102371.23
2018-12-24T22:07:08.282Z,102370.58
2018-12-24T22:12:24.921Z,102369.52
2018-12-24T22:17:21.899Z,102369.16
2018-12-24T22:22:17.929Z,102359.30
2018-12-24T22:27:55.980Z,102347.27
2018-12-24T22:32:52.104Z,102337.19
2018-12-24T22:37:48.875Z,102335.05
2018-12-24T22:42:44.895Z,102338.80
2018-12-24T22:47:40.941Z,102346.48
2018-12-24T22:52:57.385Z,102344.62
2018-12-24T23:03:09.522Z,102337.42
2018-12-24T23:08:06.259Z,102335.50
2018-12-24T23:13:02.375Z,102325.03
2018-12-24T23:17:58.403Z,102328.28
2018-12-24T23:22:54.418Z,102329.17
2018-12-24T23:32:58.634Z,102314.83
2018-12-24T23:37:54.654Z,102310.41
2018-12-24T23:42:51.615Z,102327.72
2018-12-24T23:47:47.631Z,102346.14
2018-12-24T23:52:43.650Z,102337.31
2018-12-24T23:58:01.381Z,102334.77
